createdAt,value
2022-10-10T00:00:16.354Z,1016.87
2022-10-10T00:01:16.629Z,1016.85
2022-10-10T00:02:16.752Z,1016.85
2022-10-10T00:03:16.943Z,1016.81
2022-10-10T00:04:17.127Z,1016.81
2022-10-10T00:05:17.321Z,1016.85
2022-10-10T00:06:17.572Z,1016.80
2022-10-10T00:07:17.683Z,1016.81
2022-10-10T00:08:17.870Z,1016.81
2022-10-10T00:09:18.064Z,1016.81
2022-10-10T00:10:18.251Z,1016.79
2022-10-10T00:11:18.472Z,1016.77
2022-10-10T00:12:18.617Z,1016.71
2022-10-10T00:13:18.805Z,1016.70
2022-10-10T00:14:19.032Z,1016.68
2022-10-10T00:15:19.191Z,1016.70
2022-10-10T00:16:19.369Z,1016.67
2022-10-10T00:17:19.580Z,1016.67
2022-10-10T00:18:19.722Z,1016.67
2022-10-10T00:19:19.898Z,1016.62
2022-10-10T00:20:20.054Z,1016.60
2022-10-10T00:21:20.269Z,1016.59
2022-10-10T00:22:20.487Z,1016.56
2022-10-10T00:23:20.663Z,1016.56
2022-10-10T00:24:20.805Z,1016.58
2022-10-10T00:25:21.004Z,1016.60
2022-10-10T00:26:21.192Z,1016.54
2022-10-10T00:27:21.397Z,1016.58
2022-10-10T00:28:21.623Z,1016.57
2022-10-10T00:29:21.703Z,1016.57
2022-10-10T00:30:21.871Z,1016.59
2022-10-10T00:31:22.041Z,1016.58
2022-10-10T00:32:22.216Z,1016.57
2022-10-10T00:33:22.408Z,1016.57
2022-10-10T00:34:22.714Z,1016.54
2022-10-10T00:35:22.708Z,1016.58
2022-10-10T00:36:22.872Z,1016.52
2022-10-10T00:37:23.055Z,1016.55
2022-10-10T00:38:23.199Z,1016.44
2022-10-10T00:39:23.658Z,1016.44
2022-10-10T00:40:23.530Z,1016.52
2022-10-10T00:41:23.679Z,1016.48
2022-10-10T00:42:23.829Z,1016.44
2022-10-10T00:43:23.992Z,1016.44
2022-10-10T00:44:24.191Z,1016.41
2022-10-10T00:45:24.324Z,1016.41
2022-10-10T00:46:24.480Z,1016.37
2022-10-10T00:47:24.640Z,1016.36
2022-10-10T00:48:24.787Z,1016.38
2022-10-10T00:49:25.059Z,1016.40
2022-10-10T00:50:25.103Z,1016.37
2022-10-10T00:51:25.255Z,1016.34
2022-10-10T00:52:25.428Z,1016.32
2022-10-10T00:53:25.556Z,1016.32
2022-10-10T00:54:25.742Z,1016.31
2022-10-10T00:55:25.871Z,1016.29
2022-10-10T00:56:26.076Z,1016.28
2022-10-10T00:57:26.217Z,1016.28
2022-10-10T00:58:26.407Z,1016.22
2022-10-10T00:59:26.596Z,1016.27
2022-10-10T01:00:26.816Z,1016.27
2022-10-10T01:01:27.063Z,1016.23
2022-10-10T01:02:27.173Z,1016.20
2022-10-10T01:03:27.377Z,1016.24
2022-10-10T01:04:27.616Z,1016.23
2022-10-10T01:05:27.775Z,1016.24
2022-10-10T01:06:28.009Z,1016.24
2022-10-10T01:07:28.205Z,1016.23
2022-10-10T01:08:28.410Z,1016.19
2022-10-10T01:09:28.581Z,1016.17
2022-10-10T01:10:28.768Z,1016.15
2022-10-10T01:11:28.939Z,1016.17
2022-10-10T01:12:29.107Z,1016.15
2022-10-10T01:13:29.312Z,1016.11
2022-10-10T01:14:29.441Z,1016.10
2022-10-10T01:15:29.615Z,1016.12
2022-10-10T01:16:29.795Z,1016.13
2022-10-10T01:17:29.957Z,1016.12
2022-10-10T01:18:30.241Z,1016.08
2022-10-10T01:19:30.293Z,1016.07
2022-10-10T01:20:30.476Z,1016.13
2022-10-10T01:21:30.637Z,1016.09
2022-10-10T01:22:30.807Z,1016.13
2022-10-10T01:23:31.046Z,1016.12
2022-10-10T01:24:31.178Z,1016.07
2022-10-10T01:25:31.369Z,1016.10
2022-10-10T01:26:31.561Z,1016.08
2022-10-10T01:27:32.056Z,1016.03
2022-10-10T01:28:32.035Z,1016.03
2022-10-10T01:29:32.185Z,1016.03
2022-10-10T01:30:32.418Z,1016.00
2022-10-10T01:31:32.539Z,1016.04
2022-10-10T01:32:32.763Z,1016.01
2022-10-10T01:33:32.953Z,1016.00
2022-10-10T01:34:33.113Z,1016.02
2022-10-10T01:35:33.316Z,1016.02
2022-10-10T01:36:33.532Z,1015.99
2022-10-10T01:37:33.727Z,1016.01
2022-10-10T01:38:34.011Z,1015.97
2022-10-10T01:39:34.140Z,1015.92
2022-10-10T01:40:34.340Z,1015.94
2022-10-10T01:41:34.541Z,1015.96
2022-10-10T01:42:34.727Z,1015.90
2022-10-10T01:43:34.954Z,1015.91
2022-10-10T01:44:35.117Z,1015.91
2022-10-10T01:45:35.350Z,1015.89
2022-10-10T01:46:35.500Z,1015.87
2022-10-10T01:47:35.684Z,1015.85
2022-10-10T01:48:35.873Z,1015.80
2022-10-10T01:49:36.071Z,1015.79
2022-10-10T01:50:36.306Z,1015.76
2022-10-10T01:51:36.477Z,1015.80
2022-10-10T01:52:36.691Z,1015.72
2022-10-10T01:53:36.978Z,1015.73
2022-10-10T01:54:37.131Z,1015.69
2022-10-10T01:55:37.339Z,1015.69
2022-10-10T01:56:37.508Z,1015.68
2022-10-10T01:57:37.724Z,1015.63
2022-10-10T01:58:37.928Z,1015.63
2022-10-10T01:59:38.115Z,1015.62
2022-10-10T02:00:38.400Z,1015.59
2022-10-10T02:01:38.476Z,1015.55
2022-10-10T02:02:38.657Z,1015.57
2022-10-10T02:03:38.844Z,1015.56
2022-10-10T02:04:39.009Z,1015.58
2022-10-10T02:05:39.213Z,1015.58
2022-10-10T02:06:39.365Z,1015.53
2022-10-10T02:07:39.541Z,1015.55
2022-10-10T02:08:39.741Z,1015.55
2022-10-10T02:09:39.933Z,1015.51
2022-10-10T02:10:40.063Z,1015.47
2022-10-10T02:11:40.234Z,1015.49
2022-10-10T02:12:40.411Z,1015.46
2022-10-10T02:13:40.568Z,1015.44
2022-10-10T02:14:40.771Z,1015.46
2022-10-10T02:15:40.925Z,1015.43
2022-10-10T02:16:41.111Z,1015.43
2022-10-10T02:17:41.347Z,1015.43
2022-10-10T02:18:41.483Z,1015.41
2022-10-10T02:19:41.687Z,1015.38
2022-10-10T02:20:41.862Z,1015.43
2022-10-10T02:21:42.018Z,1015.34
2022-10-10T02:22:42.294Z,1015.32
2022-10-10T02:23:42.409Z,1015.35
2022-10-10T02:24:42.580Z,1015.32
2022-10-10T02:25:42.759Z,1015.31
2022-10-10T02:26:42.940Z,1015.29
2022-10-10T02:27:43.160Z,1015.31
2022-10-10T02:28:43.316Z,1015.35
2022-10-10T02:29:43.454Z,1015.30
2022-10-10T02:30:43.657Z,1015.35
2022-10-10T02:31:43.797Z,1015.29
2022-10-10T02:32:43.969Z,1015.32
2022-10-10T02:33:44.315Z,1015.31
2022-10-10T02:34:44.333Z,1015.27
2022-10-10T02:35:44.512Z,1015.32
2022-10-10T02:36:44.694Z,1015.33
2022-10-10T02:37:44.874Z,1015.33
2022-10-10T02:38:45.100Z,1015.27
2022-10-10T02:39:45.357Z,1015.34
2022-10-10T02:40:45.395Z,1015.25
2022-10-10T02:41:45.569Z,1015.27
2022-10-10T02:42:45.753Z,1015.29
2022-10-10T02:43:45.943Z,1015.25
2022-10-10T02:44:46.170Z,1015.22
2022-10-10T02:45:46.296Z,1015.21
2022-10-10T02:46:46.468Z,1015.21
2022-10-10T02:47:46.631Z,1015.22
2022-10-10T02:48:46.808Z,1015.18
2022-10-10T02:49:47.011Z,1015.20
2022-10-10T02:50:47.181Z,1015.19
2022-10-10T02:51:47.316Z,1015.15
2022-10-10T02:52:47.750Z,1015.16
2022-10-10T02:53:47.673Z,1015.18
2022-10-10T02:54:47.911Z,1015.12
2022-10-10T02:55:48.009Z,1015.16
2022-10-10T02:56:48.192Z,1015.15
2022-10-10T02:57:48.387Z,1015.11
2022-10-10T02:58:48.577Z,1015.13
2022-10-10T02:59:48.805Z,1015.15
2022-10-10T03:00:49.047Z,1015.17
2022-10-10T03:01:49.175Z,1015.15
2022-10-10T03:02:49.792Z,1015.17
2022-10-10T03:03:49.581Z,1015.13
2022-10-10T03:04:49.821Z,1015.14
2022-10-10T03:05:49.989Z,1015.08
2022-10-10T03:06:50.203Z,1015.02
2022-10-10T03:07:50.396Z,1015.03
2022-10-10T03:08:50.613Z,1015.03
2022-10-10T03:09:50.939Z,1015.00
2022-10-10T03:10:51.004Z,1014.98
2022-10-10T03:11:51.192Z,1014.99
2022-10-10T03:12:51.841Z,1014.97
2022-10-10T03:13:51.586Z,1014.93
2022-10-10T03:14:51.822Z,1014.95
2022-10-10T03:15:51.988Z,1014.94
2022-10-10T03:16:52.230Z,1014.90
2022-10-10T03:17:52.417Z,1014.94
2022-10-10T03:18:52.607Z,1014.90
2022-10-10T03:19:52.820Z,1014.91
2022-10-10T03:20:53.077Z,1014.89
2022-10-10T03:21:53.278Z,1014.90
2022-10-10T03:22:53.736Z,1014.92
2022-10-10T03:23:53.718Z,1014.88
2022-10-10T03:24:53.951Z,1014.90
2022-10-10T03:25:54.168Z,1014.88
2022-10-10T03:26:54.341Z,1014.90
2022-10-10T03:27:54.551Z,1014.91
2022-10-10T03:28:54.761Z,1014.86
2022-10-10T03:29:54.969Z,1014.86
2022-10-10T03:30:55.200Z,1014.82
2022-10-10T03:31:55.368Z,1014.87
2022-10-10T03:32:55.570Z,1014.84
2022-10-10T03:33:55.769Z,1014.79
2022-10-10T03:34:55.973Z,1014.82
2022-10-10T03:35:56.318Z,1014.79
2022-10-10T03:36:56.359Z,1014.83
2022-10-10T03:37:56.569Z,1014.82
2022-10-10T03:38:56.768Z,1014.79
2022-10-10T03:39:56.984Z,1014.81
2022-10-10T03:40:57.190Z,1014.80
2022-10-10T03:41:57.349Z,1014.80
2022-10-10T03:42:57.544Z,1014.77
2022-10-10T03:43:57.758Z,1014.81
2022-10-10T03:44:57.971Z,1014.77
2022-10-10T03:45:58.172Z,1014.78
2022-10-10T03:46:58.340Z,1014.75
2022-10-10T03:47:58.523Z,1014.75
2022-10-10T03:48:58.712Z,1014.77
2022-10-10T03:49:58.892Z,1014.75
2022-10-10T03:50:59.117Z,1014.73
2022-10-10T03:51:59.329Z,1014.71
2022-10-10T03:52:59.508Z,1014.68
2022-10-10T03:53:59.712Z,1014.67
2022-10-10T03:54:59.918Z,1014.67
2022-10-10T03:56:00.106Z,1014.65
2022-10-10T03:57:00.280Z,1014.64
2022-10-10T03:58:00.474Z,1014.64
2022-10-10T03:59:00.661Z,1014.61
2022-10-10T04:00:00.850Z,1014.58
2022-10-10T04:01:01.210Z,1014.58
2022-10-10T04:02:01.228Z,1014.54
2022-10-10T04:03:01.431Z,1014.54
2022-10-10T04:04:01.737Z,1014.51
2022-10-10T04:05:01.815Z,1014.54
2022-10-10T04:06:02.019Z,1014.47
2022-10-10T04:07:02.199Z,1014.49
2022-10-10T04:08:02.394Z,1014.48
2022-10-10T04:09:02.613Z,1014.45
2022-10-10T04:10:02.796Z,1014.49
2022-10-10T04:11:02.963Z,1014.50
2022-10-10T04:12:03.141Z,1014.47
2022-10-10T04:13:03.334Z,1014.43
2022-10-10T04:14:03.539Z,1014.43
2022-10-10T04:15:03.697Z,1014.46
2022-10-10T04:16:03.907Z,1014.44
2022-10-10T04:17:04.101Z,1014.48
2022-10-10T04:18:04.344Z,1014.42
2022-10-10T04:19:04.502Z,1014.40
2022-10-10T04:20:04.717Z,1014.38
2022-10-10T04:21:04.873Z,1014.38
2022-10-10T04:22:08.946Z,1014.36
2022-10-10T04:23:05.251Z,1014.38
2022-10-10T04:24:05.439Z,1014.38
2022-10-10T04:25:05.794Z,1014.37
2022-10-10T04:26:05.816Z,1014.32
2022-10-10T04:27:05.990Z,1014.30
2022-10-10T04:28:06.264Z,1014.31
2022-10-10T04:29:06.356Z,1014.28
2022-10-10T04:30:06.567Z,1014.28
2022-10-10T04:31:06.749Z,1014.27
2022-10-10T04:32:06.938Z,1014.27
2022-10-10T04:33:07.093Z,1014.30
2022-10-10T04:34:07.279Z,1014.34
2022-10-10T04:35:07.488Z,1014.30
2022-10-10T04:36:07.651Z,1014.33
2022-10-10T04:37:07.863Z,1014.32
2022-10-10T04:38:08.007Z,1014.30
2022-10-10T04:39:08.192Z,1014.29
2022-10-10T04:40:08.410Z,1014.28
2022-10-10T04:41:08.596Z,1014.26
2022-10-10T04:42:08.966Z,1014.24
2022-10-10T04:43:08.941Z,1014.28
2022-10-10T04:44:09.127Z,1014.25
2022-10-10T04:45:09.332Z,1014.20
2022-10-10T04:46:09.553Z,1014.21
2022-10-10T04:47:09.802Z,1014.21
2022-10-10T04:48:10.031Z,1014.18
2022-10-10T04:49:10.214Z,1014.22
2022-10-10T04:50:10.453Z,1014.21
2022-10-10T04:51:10.666Z,1014.19
2022-10-10T04:52:10.886Z,1014.24
2022-10-10T04:53:11.137Z,1014.19
2022-10-10T04:54:11.396Z,1014.21
2022-10-10T04:55:11.565Z,1014.20
2022-10-10T04:56:11.746Z,1014.18
2022-10-10T04:57:11.956Z,1014.19
2022-10-10T04:58:12.168Z,1014.16
2022-10-10T04:59:12.416Z,1014.16
2022-10-10T05:00:12.636Z,1014.17
2022-10-10T05:01:12.866Z,1014.18
2022-10-10T05:02:13.008Z,1014.14
2022-10-10T05:03:13.222Z,1014.10
2022-10-10T05:04:13.449Z,1014.11
2022-10-10T05:05:13.732Z,1014.09
2022-10-10T05:06:13.913Z,1014.08
2022-10-10T05:07:14.045Z,1014.01
2022-10-10T05:08:14.246Z,1014.02
2022-10-10T05:09:14.507Z,1014.07
2022-10-10T05:10:14.686Z,1014.01
2022-10-10T05:11:14.868Z,1014.00
2022-10-10T05:12:15.096Z,1013.95
2022-10-10T05:13:15.253Z,1013.99
2022-10-10T05:14:15.487Z,1013.98
2022-10-10T05:15:15.636Z,1013.98
2022-10-10T05:16:15.842Z,1014.00
2022-10-10T05:17:16.034Z,1014.00
2022-10-10T05:18:16.235Z,1014.00
2022-10-10T05:19:16.597Z,1013.99
2022-10-10T05:20:16.637Z,1013.97
2022-10-10T05:21:16.835Z,1013.97
2022-10-10T05:22:17.038Z,1013.98
2022-10-10T05:23:17.262Z,1013.99
2022-10-10T05:24:17.469Z,1013.98
2022-10-10T05:25:17.670Z,1013.96
2022-10-10T05:26:17.851Z,1013.94
2022-10-10T05:27:18.071Z,1013.92
2022-10-10T05:28:18.336Z,1013.95
2022-10-10T05:29:18.519Z,1013.95
2022-10-10T05:30:18.739Z,1013.92
2022-10-10T05:31:18.914Z,1013.92
2022-10-10T05:32:19.125Z,1013.89
2022-10-10T05:33:19.334Z,1013.90
2022-10-10T05:34:19.547Z,1013.90
2022-10-10T05:35:19.800Z,1013.90
2022-10-10T05:36:19.980Z,1013.88
2022-10-10T05:37:20.197Z,1013.89
2022-10-10T05:38:20.448Z,1013.87
2022-10-10T05:39:20.619Z,1013.86
2022-10-10T05:40:20.875Z,1013.83
2022-10-10T05:41:21.005Z,1013.88
2022-10-10T05:42:21.214Z,1013.91
2022-10-10T05:43:21.363Z,1013.86
2022-10-10T05:44:21.537Z,1013.85
2022-10-10T05:45:21.725Z,1013.84
2022-10-10T05:46:21.909Z,1013.86
2022-10-10T05:47:26.797Z,1013.87
2022-10-10T05:48:22.255Z,1013.85
2022-10-10T05:49:22.435Z,1013.88
2022-10-10T05:50:22.610Z,1013.88
2022-10-10T05:51:22.797Z,1013.85
2022-10-10T05:52:23.003Z,1013.86
2022-10-10T05:53:23.194Z,1013.81
2022-10-10T05:54:23.330Z,1013.81
2022-10-10T05:55:23.509Z,1013.80
2022-10-10T05:56:23.811Z,1013.74
2022-10-10T05:57:23.927Z,1013.74
